Time;durP1;ratioP1;P1;durP2;ratioP2;P2;SDS_P1;SDS_P2;PMS_P1;PMS_P2;Temp;Humidity;BMP_temperature;BMP_pressure;BME280_temperature;BME280_humidity;BME280_pressure;Samples;Min_cycle;Max_cycle;Signal;HPM_P1;HPM_P2
2022/03/01 00:02:00;;;;;;;3.97;2.97;;;22.40;28.30;;;;;;5110320;28;20903;-73
2022/03/01 00:04:25;;;;;;;4.28;3.15;;;22.40;28.20;;;;;;5110287;28;20818;-72
2022/03/01 00:06:51;;;;;;;3.50;3.20;;;22.40;28.20;;;;;;5110610;28;20393;-71
2022/03/01 00:09:17;;;;;;;3.67;2.92;;;22.40;28.20;;;;;;5110051;28;20400;-73
2022/03/01 00:11:42;;;;;;;3.80;2.80;;;22.30;28.20;;;;;;5110355;28;20384;-73
2022/03/01 00:14:08;;;;;;;3.90;3.10;;;22.30;28.10;;;;;;5111897;28;20392;-73
2022/03/01 00:16:35;;;;;;;3.57;2.90;;;22.30;28.10;;;;;;5111758;28;20384;-73
2022/03/01 00:19:01;;;;;;;3.35;2.75;;;22.40;28.10;;;;;;5111447;28;20380;-73
2022/03/01 00:21:30;;;;;;;4.85;3.47;;;22.40;28.20;;;;;;5111450;28;20727;-70
2022/03/01 00:23:57;;;;;;;3.50;2.85;;;22.30;28.20;;;;;;5110373;28;20925;-73
2022/03/01 00:26:23;;;;;;;3.53;2.72;;;22.30;28.10;;;;;;5110401;28;20389;-73
2022/03/01 00:28:49;;;;;;;3.30;3.00;;;22.30;28.10;;;;;;5111673;28;20380;-73
2022/03/01 00:31:15;;;;;;;3.60;3.00;;;22.30;28.20;;;;;;5111171;28;20876;-72
2022/03/01 00:33:41;;;;;;;3.65;2.92;;;22.30;28.10;;;;;;5111613;28;20381;-72
2022/03/01 00:36:07;;;;;;;3.83;2.93;;;22.30;28.10;;;;;;5111576;28;20381;-73
2022/03/01 00:38:33;;;;;;;3.40;2.90;;;22.30;28.00;;;;;;5111585;28;20858;-71
2022/03/01 00:40:59;;;;;;;3.47;2.80;;;22.30;28.00;;;;;;5110218;28;20402;-73
2022/03/01 00:43:25;;;;;;;4.00;3.10;;;22.30;28.00;;;;;;5110969;28;20419;-70
2022/03/01 00:45:52;;;;;;;3.83;3.05;;;22.30;28.00;;;;;;5111357;28;20824;-70
2022/03/01 00:48:19;;;;;;;4.00;3.10;;;22.20;28.00;;;;;;5110133;28;20400;-70
2022/03/01 00:50:44;;;;;;;4.60;3.53;;;22.20;28.40;;;;;;5111428;28;20386;-72
2022/03/01 00:53:10;;;;;;;3.63;3.20;;;22.20;27.90;;;;;;5111039;28;20422;-71
2022/03/01 00:55:36;;;;;;;3.53;3.03;;;22.20;27.90;;;;;;5111454;28;20928;-72
2022/03/01 00:58:02;;;;;;;3.53;3.03;;;22.20;27.90;;;;;;5112203;28;20475;-70
2022/03/01 01:00:29;;;;;;;3.83;2.80;;;22.20;27.90;;;;;;5115015;28;20376;-73
2022/03/01 01:02:55;;;;;;;3.37;3.00;;;22.20;27.80;;;;;;5114960;28;20420;-72
2022/03/01 01:05:22;;;;;;;3.47;2.90;;;22.20;27.90;;;;;;5113379;28;20392;-72
2022/03/01 01:07:48;;;;;;;4.25;3.17;;;22.20;28.00;;;;;;5115033;28;20424;-71
2022/03/01 01:10:14;;;;;;;3.92;3.25;;;22.20;28.00;;;;;;5113704;28;20447;-71
2022/03/01 01:12:40;;;;;;;3.83;3.28;;;22.10;27.90;;;;;;5113628;28;20392;-70
2022/03/01 01:15:07;;;;;;;3.95;3.00;;;22.20;27.90;;;;;;5114654;28;20415;-70
2022/03/01 01:17:33;;;;;;;3.72;3.13;;;22.20;28.00;;;;;;5113616;28;20461;-70
2022/03/01 01:19:59;;;;;;;3.53;3.05;;;22.20;27.90;;;;;;5114905;28;20381;-71
2022/03/01 01:22:40;;;;;;;3.88;3.00;;;22.20;27.90;;;;;;5113487;28;20969;-71
2022/03/01 01:25:07;;;;;;;3.67;2.97;;;22.10;27.90;;;;;;5113311;28;20396;-71
2022/03/01 01:27:33;;;;;;;3.67;3.00;;;22.10;27.90;;;;;;5114432;28;20416;-70
2022/03/01 01:29:59;;;;;;;3.67;3.20;;;22.10;28.10;;;;;;5113404;28;20397;-71
2022/03/01 01:32:25;;;;;;;4.30;3.37;;;22.10;27.80;;;;;;5114672;28;20885;-71
2022/03/01 01:34:52;;;;;;;4.55;3.38;;;22.10;27.80;;;;;;5114553;28;20443;-70
2022/03/01 01:37:18;;;;;;;3.72;3.00;;;22.10;27.80;;;;;;5114047;28;20372;-71
2022/03/01 01:39:44;;;;;;;3.55;2.80;;;22.10;27.80;;;;;;5113184;28;20962;-71
2022/03/01 01:42:09;;;;;;;3.73;3.07;;;22.10;27.80;;;;;;5112888;28;20410;-71
2022/03/01 01:44:35;;;;;;;3.92;3.08;;;22.10;27.80;;;;;;5113201;28;20400;-71
2022/03/01 01:47:01;;;;;;;3.60;3.00;;;22.00;27.80;;;;;;5112897;28;20479;-71
2022/03/01 01:49:26;;;;;;;3.83;3.05;;;22.00;27.80;;;;;;5113753;28;20415;-71
2022/03/01 01:51:54;;;;;;;3.60;3.00;;;22.00;27.80;;;;;;5114288;28;20381;-70
2022/03/01 01:54:20;;;;;;;3.38;2.80;;;22.00;27.90;;;;;;5112855;28;20385;-71
2022/03/01 01:56:46;;;;;;;3.90;3.13;;;21.90;27.90;;;;;;5112960;28;20387;-70
2022/03/01 01:59:11;;;;;;;3.30;2.70;;;22.00;27.80;;;;;;5113538;28;20389;-70
2022/03/01 02:01:37;;;;;;;3.67;3.00;;;21.90;27.90;;;;;;5112789;28;20479;-70
2022/03/01 02:04:03;;;;;;;3.47;3.08;;;21.90;28.30;;;;;;5114014;28;20766;-70
2022/03/01 02:06:29;;;;;;;3.47;2.97;;;22.00;27.80;;;;;;5112600;28;20384;-70
2022/03/01 02:08:55;;;;;;;3.42;2.75;;;21.90;27.80;;;;;;5112642;28;20825;-71
2022/03/01 02:11:20;;;;;;;3.90;3.17;;;21.90;27.70;;;;;;5112583;28;20782;-72
2022/03/01 02:13:46;;;;;;;3.57;3.00;;;21.90;27.70;;;;;;5112538;28;20396;-70
2022/03/01 02:16:12;;;;;;;3.85;3.13;;;22.00;27.70;;;;;;5113813;28;20869;-73
2022/03/01 02:18:39;;;;;;;3.67;3.20;;;22.00;27.60;;;;;;5113665;28;20493;-70
2022/03/01 02:21:04;;;;;;;3.53;2.72;;;22.00;28.20;;;;;;5112298;28;20380;-70
2022/03/01 02:23:30;;;;;;;4.15;3.00;;;22.00;27.70;;;;;;5113197;28;20415;-73
2022/03/01 02:25:56;;;;;;;3.10;2.80;;;22.00;27.60;;;;;;5113625;28;20389;-72
2022/03/01 02:28:21;;;;;;;3.75;3.00;;;22.00;27.60;;;;;;5113642;28;20471;-71
2022/03/01 02:30:47;;;;;;;3.92;3.05;;;22.00;27.60;;;;;;5112224;28;20381;-70
2022/03/01 02:33:13;;;;;;;3.67;2.97;;;21.90;27.60;;;;;;5112975;27;20392;-70
2022/03/01 02:35:38;;;;;;;3.67;2.83;;;21.90;27.60;;;;;;5113317;27;20377;-70
2022/03/01 02:38:04;;;;;;;2.95;2.60;;;21.90;27.60;;;;;;5113365;28;20385;-71
2022/03/01 02:40:30;;;;;;;3.53;2.83;;;21.90;27.70;;;;;;5113345;28;20376;-70
2022/03/01 02:42:56;;;;;;;3.15;2.70;;;21.90;27.60;;;;;;5113197;28;20412;-70
2022/03/01 02:45:23;;;;;;;3.42;2.78;;;21.90;27.60;;;;;;5112503;28;20408;-71
2022/03/01 02:47:49;;;;;;;3.50;2.90;;;21.90;27.60;;;;;;5113151;28;20397;-71
2022/03/01 02:50:16;;;;;;;3.38;2.90;;;21.80;27.60;;;;;;5112977;28;20388;-71
2022/03/01 02:52:42;;;;;;;3.17;2.70;;;21.80;27.60;;;;;;5113052;28;20396;-71
2022/03/01 02:55:09;;;;;;;3.63;2.83;;;21.80;27.50;;;;;;5112811;28;20386;-71
2022/03/01 02:57:35;;;;;;;3.40;2.78;;;21.80;27.50;;;;;;5112608;28;20411;-70
2022/03/01 03:00:03;;;;;;;3.17;2.88;;;21.80;27.60;;;;;;5112878;28;20447;-71
2022/03/01 03:02:29;;;;;;;3.35;2.75;;;21.80;27.50;;;;;;5112655;28;20400;-71
2022/03/01 03:04:55;;;;;;;3.40;2.70;;;21.80;27.60;;;;;;5112912;28;20392;-70
2022/03/01 03:07:20;;;;;;;3.88;2.88;;;21.80;27.60;;;;;;5112193;28;20465;-71
2022/03/01 03:09:46;;;;;;;3.93;3.07;;;21.80;27.60;;;;;;5112708;28;20398;-71
2022/03/01 03:12:12;;;;;;;3.60;3.00;;;21.80;27.50;;;;;;5112548;28;20395;-71
2022/03/01 03:14:38;;;;;;;3.17;2.70;;;21.80;27.60;;;;;;5112460;28;20387;-70
2022/03/01 03:17:04;;;;;;;3.70;3.05;;;21.80;27.40;;;;;;5112628;28;20395;-71
2022/03/01 03:19:30;;;;;;;3.20;2.70;;;21.80;27.50;;;;;;5112072;28;20399;-70
2022/03/01 03:21:56;;;;;;;3.67;2.72;;;21.80;27.40;;;;;;5112409;28;20380;-69
2022/03/01 03:24:21;;;;;;;3.25;2.80;;;21.80;27.40;;;;;;5112390;28;20399;-69
2022/03/01 03:26:47;;;;;;;3.93;2.90;;;21.80;27.40;;;;;;5112450;28;20416;-71
2022/03/01 03:29:13;;;;;;;3.17;2.70;;;21.80;27.40;;;;;;5110835;28;20399;-70
2022/03/01 03:31:41;;;;;;;3.53;2.78;;;21.80;27.40;;;;;;5112055;28;20376;-72
2022/03/01 03:34:08;;;;;;;4.13;2.80;;;21.80;27.40;;;;;;5112155;28;20392;-71
2022/03/01 03:36:39;;;;;;;4.10;2.90;;;21.80;27.40;;;;;;5110916;28;20391;-69
2022/03/01 03:39:08;;;;;;;3.25;2.55;;;21.80;27.40;;;;;;5110654;28;20397;-71
2022/03/01 03:41:34;;;;;;;3.38;2.65;;;21.80;27.40;;;;;;5111878;28;20734;-72
2022/03/01 03:44:00;;;;;;;3.35;2.78;;;21.80;27.40;;;;;;5112005;28;20428;-71
2022/03/01 03:46:26;;;;;;;3.92;2.80;;;21.70;27.40;;;;;;5111935;28;20408;-71
2022/03/01 03:48:52;;;;;;;3.90;2.85;;;21.70;27.30;;;;;;5112104;28;20467;-71
2022/03/01 03:51:19;;;;;;;3.17;2.75;;;21.70;27.40;;;;;;5111583;28;20467;-72
2022/03/01 03:53:46;;;;;;;3.33;2.80;;;21.70;27.40;;;;;;5110745;28;20384;-70
2022/03/01 03:56:12;;;;;;;3.70;2.80;;;21.70;27.40;;;;;;5110659;28;20475;-71
2022/03/01 03:58:37;;;;;;;3.63;2.90;;;21.70;27.40;;;;;;5112014;28;20431;-71
2022/03/01 04:01:04;;;;;;;4.07;3.25;;;21.70;27.30;;;;;;5111979;28;20935;-71
2022/03/01 04:03:29;;;;;;;4.50;3.35;;;21.60;27.10;;;;;;5111345;28;20407;-71
2022/03/01 04:05:55;;;;;;;6.10;4.75;;;21.70;27.40;;;;;;5111928;28;20388;-70
2022/03/01 04:08:21;;;;;;;5.45;4.50;;;21.80;29.90;;;;;;5111741;28;20380;-70
2022/03/01 04:10:46;;;;;;;4.47;3.45;;;21.90;30.40;;;;;;5111768;28;20372;-71
2022/03/01 04:13:12;;;;;;;7.07;3.53;;;21.90;29.60;;;;;;5111616;28;20380;-71
2022/03/01 04:15:38;;;;;;;6.85;3.22;;;21.90;29.00;;;;;;5111527;28;20385;-71
2022/03/01 04:18:04;;;;;;;5.93;3.57;;;21.90;29.80;;;;;;5111895;28;21139;-72
2022/03/01 04:20:30;;;;;;;5.75;3.03;;;22.00;30.00;;;;;;5110499;28;21019;-71
2022/03/01 04:22:56;;;;;;;4.65;3.15;;;22.00;29.80;;;;;;5111537;28;20415;-70
2022/03/01 04:25:22;;;;;;;6.72;2.97;;;22.00;29.30;;;;;;5111029;28;20410;-70
2022/03/01 04:27:48;;;;;;;5.95;3.13;;;22.00;29.80;;;;;;5110450;28;20400;-71
2022/03/01 04:30:15;;;;;;;6.60;3.30;;;22.00;30.00;;;;;;5110423;28;20387;-71
2022/03/01 04:32:41;;;;;;;5.07;3.20;;;22.10;29.60;;;;;;5110560;28;20477;-70
2022/03/01 04:35:08;;;;;;;7.50;3.13;;;22.10;29.70;;;;;;5115399;28;20395;-69
2022/03/01 04:37:39;;;;;;;7.90;3.40;;;22.20;29.90;;;;;;5115242;28;20384;-69
2022/03/01 04:40:06;;;;;;;8.70;3.20;;;22.20;29.90;;;;;;5115752;27;20376;-70
2022/03/01 04:42:33;;;;;;;6.80;2.80;;;22.30;30.10;;;;;;5115459;28;20404;-69
2022/03/01 04:45:00;;;;;;;6.40;2.88;;;22.30;30.10;;;;;;5114213;28;20392;-70
2022/03/01 04:47:26;;;;;;;7.47;2.97;;;22.30;30.10;;;;;;5114183;28;20388;-72
2022/03/01 04:49:51;;;;;;;4.20;2.70;;;22.30;30.00;;;;;;5116179;28;20520;-72
2022/03/01 04:52:17;;;;;;;4.57;3.03;;;22.40;30.00;;;;;;5115393;28;20376;-71
2022/03/01 04:54:43;;;;;;;7.47;3.00;;;22.30;29.90;;;;;;5114163;28;20746;-71
2022/03/01 04:57:09;;;;;;;3.63;2.50;;;22.40;29.90;;;;;;5115330;28;20904;-70
2022/03/01 04:59:34;;;;;;;6.30;2.53;;;22.40;29.80;;;;;;5114717;27;20380;-70
2022/03/01 05:02:00;;;;;;;7.47;3.08;;;22.40;30.00;;;;;;5115100;28;20938;-70
2022/03/01 05:04:26;;;;;;;7.72;3.10;;;22.40;29.80;;;;;;5113761;28;20408;-72
2022/03/01 05:06:52;;;;;;;6.83;2.70;;;22.30;29.70;;;;;;5114783;28;20412;-72
2022/03/01 05:09:17;;;;;;;7.97;2.67;;;22.20;29.80;;;;;;5114718;28;20395;-70
2022/03/01 05:11:44;;;;;;;6.30;2.70;;;22.20;29.60;;;;;;5114601;28;20384;-71
2022/03/01 05:14:09;;;;;;;5.47;2.63;;;22.20;29.40;;;;;;5114405;28;20380;-69
2022/03/01 05:16:35;;;;;;;4.63;2.53;;;22.20;28.60;;;;;;5114637;28;20384;-70
2022/03/01 05:19:01;;;;;;;4.30;2.57;;;22.10;28.70;;;;;;5114806;27;20384;-69
2022/03/01 05:21:28;;;;;;;5.78;2.63;;;22.10;29.10;;;;;;5112983;28;20719;-70
2022/03/01 05:23:54;;;;;;;5.95;2.78;;;22.00;29.30;;;;;;5114720;28;20504;-70
2022/03/01 05:26:19;;;;;;;5.07;2.47;;;22.00;28.90;;;;;;5114657;28;20466;-70
2022/03/01 05:28:45;;;;;;;5.00;2.85;;;22.00;28.90;;;;;;5114769;28;20388;-70
2022/03/01 05:31:10;;;;;;;5.97;2.90;;;22.00;28.70;;;;;;5112209;28;20373;-70
2022/03/01 05:33:36;;;;;;;5.30;2.60;;;21.90;28.60;;;;;;5112808;28;20410;-70
2022/03/01 05:36:02;;;;;;;4.00;2.90;;;22.00;28.40;;;;;;5113295;28;20424;-69
2022/03/01 05:38:28;;;;;;;4.40;2.58;;;22.00;28.50;;;;;;5114493;28;20396;-71
2022/03/01 05:40:54;;;;;;;5.45;2.72;;;21.90;28.70;;;;;;5113185;28;20381;-70
2022/03/01 05:43:20;;;;;;;4.20;2.50;;;21.90;29.10;;;;;;5105583;28;20420;-70
2022/03/01 05:45:46;;;;;;;4.50;2.60;;;21.90;28.90;;;;;;5108009;28;20800;-69
2022/03/01 05:48:12;;;;;;;4.17;2.50;;;21.90;28.80;;;;;;5113711;28;20885;-70
2022/03/01 05:50:37;;;;;;;3.85;2.70;;;21.90;28.50;;;;;;5113777;28;20449;-69
2022/03/01 05:53:04;;;;;;;6.00;3.03;;;21.90;28.30;;;;;;5113620;28;20385;-70
2022/03/01 05:55:29;;;;;;;3.97;2.53;;;21.90;28.30;;;;;;5112095;28;20432;-70
2022/03/01 05:57:55;;;;;;;4.68;2.65;;;21.90;28.10;;;;;;5112705;28;20412;-70
2022/03/01 06:00:21;;;;;;;3.63;2.43;;;21.90;28.20;;;;;;5113789;28;20456;-70
2022/03/01 06:02:49;;;;;;;5.25;2.70;;;21.80;28.10;;;;;;5113293;28;20909;-70
2022/03/01 06:05:15;;;;;;;4.63;2.88;;;21.80;28.20;;;;;;5112582;28;20416;-69
2022/03/01 06:07:42;;;;;;;4.15;2.25;;;21.80;28.20;;;;;;5113369;28;20457;-70
2022/03/01 06:10:08;;;;;;;4.43;2.60;;;21.80;28.00;;;;;;5112354;28;20385;-70
2022/03/01 06:12:34;;;;;;;4.15;2.75;;;21.80;27.90;;;;;;5113570;28;20494;-70
2022/03/01 06:14:59;;;;;;;3.85;2.63;;;21.80;28.00;;;;;;5113469;28;20424;-70
2022/03/01 06:17:25;;;;;;;3.53;2.70;;;21.80;28.00;;;;;;5113234;28;20476;-70
2022/03/01 06:19:51;;;;;;;5.10;2.60;;;21.80;28.20;;;;;;5113478;28;20429;-70
2022/03/01 06:22:16;;;;;;;5.35;2.63;;;21.80;27.80;;;;;;5113470;28;20381;-71
2022/03/01 06:24:43;;;;;;;4.13;2.35;;;21.70;28.10;;;;;;5113644;28;20878;-70
2022/03/01 06:27:09;;;;;;;4.28;2.40;;;21.60;28.20;;;;;;5113542;28;20417;-71
2022/03/01 06:29:36;;;;;;;3.50;2.60;;;21.60;28.30;;;;;;5113134;28;20479;-71
2022/03/01 06:32:02;;;;;;;3.78;2.30;;;21.60;28.10;;;;;;5112136;28;20392;-70
2022/03/01 06:34:28;;;;;;;3.47;2.40;;;21.70;28.30;;;;;;5113359;28;20388;-71
2022/03/01 06:36:54;;;;;;;4.72;2.80;;;21.70;28.30;;;;;;5113305;28;20459;-72
2022/03/01 06:39:19;;;;;;;3.72;2.58;;;21.70;28.10;;;;;;5112998;28;20398;-71
2022/03/01 06:41:45;;;;;;;4.30;2.65;;;21.70;28.10;;;;;;5112990;28;20742;-71
2022/03/01 06:44:11;;;;;;;3.87;2.70;;;21.70;28.10;;;;;;5111877;28;20411;-71
2022/03/01 06:46:36;;;;;;;3.20;2.30;;;21.60;28.00;;;;;;5113017;28;20404;-71
2022/03/01 06:49:02;;;;;;;3.63;2.67;;;21.60;28.10;;;;;;5113101;28;20441;-71
2022/03/01 06:51:28;;;;;;;4.20;2.58;;;21.60;28.10;;;;;;5112575;28;20400;-71
2022/03/01 06:53:54;;;;;;;3.55;2.60;;;21.50;28.50;;;;;;5113128;28;20420;-71
2022/03/01 06:56:19;;;;;;;4.20;2.73;;;21.50;28.10;;;;;;5112631;27;20380;-72
2022/03/01 06:58:45;;;;;;;5.43;2.85;;;21.50;28.00;;;;;;5112985;28;20389;-72
2022/03/01 07:01:11;;;;;;;4.65;2.80;;;21.50;28.00;;;;;;5112856;28;20428;-72
2022/03/01 07:03:39;;;;;;;4.37;2.70;;;21.50;28.10;;;;;;5112375;28;20905;-71
2022/03/01 07:06:05;;;;;;;3.08;2.30;;;21.50;27.90;;;;;;5112831;28;20380;-71
2022/03/01 07:08:31;;;;;;;3.88;2.55;;;21.60;28.00;;;;;;5112556;28;20397;-72
2022/03/01 07:10:56;;;;;;;4.28;2.70;;;21.60;28.00;;;;;;5111484;28;20380;-71
2022/03/01 07:13:22;;;;;;;3.58;2.35;;;21.60;27.90;;;;;;5111113;28;20396;-70
2022/03/01 07:15:48;;;;;;;3.33;2.40;;;21.60;27.90;;;;;;5112524;28;20392;-72
2022/03/01 07:18:13;;;;;;;3.47;2.30;;;21.60;27.90;;;;;;5112647;28;20400;-71
2022/03/01 07:20:39;;;;;;;3.80;2.50;;;21.60;27.90;;;;;;5112614;28;20384;-71
2022/03/01 07:23:07;;;;;;;3.13;2.30;;;21.60;27.90;;;;;;5128208;27;20976;-71
2022/03/01 07:25:32;;;;;;;3.10;2.40;;;21.60;27.80;;;;;;5110810;28;20469;-71
2022/03/01 07:27:58;;;;;;;3.10;2.20;;;21.60;27.80;;;;;;5112544;28;20432;-70
2022/03/01 07:30:26;;;;;;;3.60;2.40;;;21.60;27.90;;;;;;5111203;28;20465;-71
2022/03/01 07:32:56;;;;;;;3.00;2.13;;;21.60;27.90;;;;;;5111170;28;20877;-71
2022/03/01 07:35:23;;;;;;;3.83;2.25;;;21.70;27.80;;;;;;5110562;28;20399;-71
2022/03/01 07:37:49;;;;;;;3.10;2.35;;;21.70;27.80;;;;;;5111332;28;20388;-71
2022/03/01 07:40:15;;;;;;;3.95;2.55;;;21.70;27.90;;;;;;5110937;28;20889;-71
2022/03/01 07:42:42;;;;;;;3.20;2.40;;;21.70;27.60;;;;;;5112193;28;20438;-71
2022/03/01 07:45:08;;;;;;;3.70;2.28;;;21.80;27.50;;;;;;5112031;28;20873;-71
2022/03/01 07:47:34;;;;;;;4.13;2.60;;;21.80;27.40;;;;;;5110547;28;20877;-71
2022/03/01 07:50:00;;;;;;;4.05;2.70;;;21.80;27.50;;;;;;5112053;28;20388;-71
2022/03/01 07:52:26;;;;;;;3.70;2.20;;;21.80;27.30;;;;;;5112140;28;20454;-71
2022/03/01 07:54:52;;;;;;;4.30;2.72;;;21.80;27.10;;;;;;5112150;28;20400;-71
2022/03/01 07:57:18;;;;;;;4.18;2.70;;;21.90;27.00;;;;;;5111919;28;20384;-70
2022/03/01 07:59:44;;;;;;;4.07;2.88;;;21.90;27.10;;;;;;5110343;28;20393;-71
2022/03/01 08:02:10;;;;;;;4.13;2.50;;;21.90;26.90;;;;;;5111767;28;20456;-70
2022/03/01 08:04:37;;;;;;;4.20;2.40;;;22.00;26.80;;;;;;5111922;28;20380;-70
2022/03/01 08:07:03;;;;;;;3.70;2.13;;;22.00;26.90;;;;;;5109760;28;20440;-72
2022/03/01 08:09:29;;;;;;;4.10;2.60;;;22.00;26.90;;;;;;5110776;28;20862;-71
2022/03/01 08:11:55;;;;;;;4.00;2.30;;;22.00;26.90;;;;;;5111931;28;20403;-72
2022/03/01 08:14:20;;;;;;;3.35;2.40;;;22.10;26.90;;;;;;5111686;28;20449;-71
2022/03/01 08:16:46;;;;;;;3.90;2.50;;;22.10;26.90;;;;;;5111930;28;20498;-72
2022/03/01 08:19:12;;;;;;;3.42;2.10;;;22.10;26.90;;;;;;5111776;28;20399;-71
2022/03/01 08:21:38;;;;;;;3.47;2.40;;;22.20;26.80;;;;;;5111252;28;20726;-72
2022/03/01 08:24:03;;;;;;;3.30;2.33;;;22.20;26.90;;;;;;5111740;28;20932;-72
2022/03/01 08:26:29;;;;;;;3.50;2.30;;;22.30;26.70;;;;;;5111642;28;20908;-71
2022/03/01 08:28:55;;;;;;;3.40;2.38;;;22.30;26.80;;;;;;5111734;28;20404;-71
2022/03/01 08:31:20;;;;;;;3.43;2.13;;;22.30;26.70;;;;;;5110376;28;20376;-72
2022/03/01 08:33:46;;;;;;;3.08;2.15;;;22.40;26.70;;;;;;5111206;28;20750;-71
2022/03/01 08:36:13;;;;;;;3.17;2.13;;;22.40;26.60;;;;;;5111424;28;20387;-71
2022/03/01 08:38:40;;;;;;;3.10;2.00;;;22.40;26.60;;;;;;5109932;28;20430;-71
2022/03/01 08:41:06;;;;;;;3.78;2.28;;;22.50;26.70;;;;;;5111359;28;20386;-71
2022/03/01 08:43:31;;;;;;;3.10;2.07;;;22.50;26.60;;;;;;5111131;28;21011;-71
2022/03/01 08:45:57;;;;;;;2.97;2.03;;;22.60;26.60;;;;;;5111306;28;20796;-72
2022/03/01 08:48:25;;;;;;;2.95;2.13;;;22.60;26.50;;;;;;5111561;28;20870;-72
2022/03/01 08:50:52;;;;;;;3.40;2.00;;;22.60;26.50;;;;;;5111414;28;20463;-71
2022/03/01 08:53:19;;;;;;;2.63;1.88;;;22.70;26.50;;;;;;5111479;28;20420;-71
2022/03/01 08:55:45;;;;;;;3.05;2.05;;;22.70;26.40;;;;;;5109827;28;21357;-70
2022/03/01 08:58:12;;;;;;;3.10;2.28;;;22.60;26.30;;;;;;5111430;28;20384;-72
2022/03/01 09:00:38;;;;;;;2.80;2.22;;;22.70;26.40;;;;;;5111424;28;20376;-72
2022/03/01 09:03:04;;;;;;;2.53;2.00;;;22.70;26.60;;;;;;5111436;28;20396;-72
2022/03/01 09:05:30;;;;;;;2.23;1.80;;;22.70;26.50;;;;;;5111167;28;20473;-72
2022/03/01 09:07:56;;;;;;;2.90;2.00;;;22.70;26.40;;;;;;5110645;28;20418;-72
2022/03/01 09:10:23;;;;;;;2.80;2.13;;;22.70;26.50;;;;;;5110936;28;20392;-71
2022/03/01 09:12:52;;;;;;;3.58;2.10;;;22.70;26.60;;;;;;5111312;28;20372;-72
2022/03/01 09:15:19;;;;;;;2.72;1.88;;;22.70;26.50;;;;;;5111168;28;20385;-72
2022/03/01 09:17:46;;;;;;;2.38;1.80;;;22.80;26.40;;;;;;5111109;28;20741;-71
2022/03/01 09:20:13;;;;;;;2.42;1.70;;;22.80;26.30;;;;;;5111821;28;20400;-72
2022/03/01 09:22:38;;;;;;;2.47;2.00;;;22.80;26.20;;;;;;5114716;28;20881;-72
2022/03/01 09:25:04;;;;;;;2.80;2.00;;;22.80;26.10;;;;;;5113293;28;20388;-72
2022/03/01 09:27:31;;;;;;;2.40;1.80;;;22.90;26.20;;;;;;5113010;28;20400;-72
2022/03/01 09:29:56;;;;;;;2.55;1.83;;;23.00;26.20;;;;;;5114501;28;20403;-70
2022/03/01 09:32:22;;;;;;;2.25;1.60;;;23.00;26.30;;;;;;5113194;28;20384;-72
2022/03/01 09:34:48;;;;;;;2.70;1.77;;;23.10;26.50;;;;;;5113239;28;20449;-69
2022/03/01 09:37:14;;;;;;;3.25;2.00;;;23.10;26.40;;;;;;5113703;28;20423;-70
2022/03/01 09:39:40;;;;;;;4.28;1.83;;;23.10;26.60;;;;;;5112831;28;20908;-71
2022/03/01 09:42:09;;;;;;;2.93;1.90;;;23.00;26.80;;;;;;5113018;28;20433;-71
2022/03/01 09:44:35;;;;;;;2.80;1.65;;;23.10;26.90;;;;;;5113289;28;20404;-71
2022/03/01 09:47:02;;;;;;;2.70;1.57;;;23.10;27.00;;;;;;5101754;27;20586;-70
2022/03/01 09:49:28;;;;;;;2.75;1.80;;;23.00;27.00;;;;;;5109882;28;20388;-69
2022/03/01 09:51:55;;;;;;;2.65;1.67;;;23.20;27.10;;;;;;5112155;28;20372;-71
2022/03/01 09:54:24;;;;;;;2.28;1.63;;;23.20;26.80;;;;;;5110096;28;20387;-72
2022/03/01 09:56:50;;;;;;;2.85;1.70;;;23.20;26.80;;;;;;5112468;28;20463;-72
2022/03/01 09:59:16;;;;;;;2.90;1.80;;;23.20;26.80;;;;;;5112260;28;20475;-70
2022/03/01 10:01:51;;;;;;;2.22;1.60;;;23.20;27.20;;;;;;5112016;28;20388;-70
2022/03/01 10:04:17;;;;;;;2.95;1.77;;;23.30;26.70;;;;;;5112265;28;20902;-69
2022/03/01 10:06:48;;;;;;;2.45;1.67;;;23.30;26.70;;;;;;5112376;28;20391;-70
2022/03/01 10:09:22;;;;;;;2.40;1.70;;;23.20;26.50;;;;;;5112125;28;20431;-71
2022/03/01 10:11:48;;;;;;;2.85;1.75;;;23.20;26.50;;;;;;5108793;28;20398;-69
2022/03/01 10:14:15;;;;;;;2.13;1.63;;;23.20;26.50;;;;;;5112107;28;20391;-72
2022/03/01 10:16:45;;;;;;;2.17;1.50;;;23.20;26.50;;;;;;5109667;28;20951;-71
2022/03/01 10:19:19;;;;;;;2.38;1.55;;;23.20;26.50;;;;;;5111790;28;20389;-71
2022/03/01 10:21:49;;;;;;;2.72;1.90;;;23.20;26.40;;;;;;5108413;28;20376;-71
2022/03/01 10:24:20;;;;;;;2.15;1.50;;;23.20;26.40;;;;;;5111783;28;20411;-72
2022/03/01 10:26:45;;;;;;;2.50;1.60;;;23.20;26.40;;;;;;5110870;28;20408;-72
2022/03/01 10:29:11;;;;;;;2.15;1.50;;;23.20;26.40;;;;;;5111994;28;20420;-71
2022/03/01 10:31:37;;;;;;;2.17;1.47;;;23.20;26.40;;;;;;5110794;28;20384;-70
2022/03/01 10:34:05;;;;;;;2.55;1.70;;;23.10;26.30;;;;;;5111812;28;20475;-70
2022/03/01 10:36:44;;;;;;;2.00;1.42;;;23.20;26.40;;;;;;5110371;28;20482;-69
2022/03/01 10:39:19;;;;;;;2.42;1.52;;;23.10;26.40;;;;;;5110365;28;20463;-71
2022/03/01 10:41:47;;;;;;;1.95;1.33;;;23.10;26.30;;;;;;5109262;28;20381;-69
2022/03/01 10:44:25;;;;;;;1.73;1.30;;;23.10;26.30;;;;;;5111249;28;20448;-69
2022/03/01 10:46:57;;;;;;;2.40;1.60;;;23.10;26.40;;;;;;5108962;28;20405;-70
2022/03/01 10:49:35;;;;;;;2.00;1.40;;;23.10;26.40;;;;;;5126644;27;20477;-71
2022/03/01 10:52:08;;;;;;;2.80;1.58;;;23.20;26.30;;;;;;5108905;28;20373;-71
2022/03/01 10:54:38;;;;;;;2.85;1.50;;;23.20;26.30;;;;;;5111485;28;20884;-72
2022/03/01 10:57:07;;;;;;;2.38;1.42;;;23.20;26.30;;;;;;5109194;28;20388;-71
2022/03/01 10:59:37;;;;;;;2.08;1.50;;;23.20;26.30;;;;;;5109369;28;21779;-69
2022/03/01 11:02:04;;;;;;;1.88;1.40;;;23.20;26.30;;;;;;5110111;28;20428;-70
2022/03/01 11:04:30;;;;;;;1.90;1.48;;;23.20;26.30;;;;;;5111251;28;20415;-69
2022/03/01 11:07:00;;;;;;;2.00;1.40;;;23.30;26.30;;;;;;5111263;28;20369;-73
2022/03/01 11:09:29;;;;;;;2.50;1.53;;;23.20;26.20;;;;;;5108073;28;20397;-69
2022/03/01 11:11:56;;;;;;;2.13;1.52;;;23.20;26.10;;;;;;5110141;28;20464;-70
2022/03/01 11:14:33;;;;;;;2.25;1.60;;;23.30;26.00;;;;;;5107688;28;20406;-69
2022/03/01 11:17:18;;;;;;;2.00;1.67;;;23.30;26.10;;;;;;5110397;28;20388;-71
2022/03/01 11:20:02;;;;;;;2.20;1.63;;;23.30;26.00;;;;;;5106743;28;20893;-70
2022/03/01 11:22:45;;;;;;;2.33;1.42;;;23.30;25.90;;;;;;5108707;28;20459;-71
2022/03/01 11:25:18;;;;;;;2.67;1.40;;;23.30;25.80;;;;;;5108236;28;20403;-71
2022/03/01 11:27:46;;;;;;;2.20;1.60;;;23.30;25.90;;;;;;5105398;28;20383;-72
2022/03/01 11:30:13;;;;;;;1.70;1.30;;;23.30;25.70;;;;;;5110688;28;20801;-71
2022/03/01 11:32:44;;;;;;;2.40;1.63;;;23.40;25.70;;;;;;5109626;28;20381;-72
2022/03/01 11:35:22;;;;;;;2.10;1.60;;;23.40;25.90;;;;;;5110701;28;20388;-70
2022/03/01 11:37:58;;;;;;;2.15;1.63;;;23.40;25.80;;;;;;5108375;28;20436;-72
2022/03/01 11:40:24;;;;;;;2.00;1.60;;;23.40;25.80;;;;;;5108649;28;20407;-71
2022/03/01 11:42:50;;;;;;;2.03;1.50;;;23.40;25.70;;;;;;5110241;28;20423;-72
2022/03/01 11:45:16;;;;;;;3.33;1.58;;;23.40;25.70;;;;;;5109982;28;20654;-69
2022/03/01 11:47:42;;;;;;;2.67;1.73;;;23.40;25.70;;;;;;5110199;28;20416;-70
2022/03/01 11:50:15;;;;;;;3.60;1.70;;;23.40;25.70;;;;;;5108976;28;20404;-73
2022/03/01 11:53:04;;;;;;;3.65;1.75;;;23.40;25.80;;;;;;5110589;28;20392;-70
2022/03/01 11:55:40;;;;;;;2.90;1.60;;;23.50;25.70;;;;;;5106465;28;20461;-72
2022/03/01 11:58:08;;;;;;;2.20;1.45;;;23.50;25.80;;;;;;5110288;28;20440;-70
2022/03/01 12:00:36;;;;;;;3.63;1.52;;;23.50;25.80;;;;;;5110362;28;20958;-72
2022/03/01 12:03:02;;;;;;;3.00;1.60;;;23.50;25.80;;;;;;5109069;28;20849;-70
2022/03/01 12:05:28;;;;;;;2.42;1.48;;;23.50;25.90;;;;;;5109927;28;20398;-70
2022/03/01 12:07:54;;;;;;;2.45;1.52;;;23.60;25.90;;;;;;5108621;28;20368;-71
2022/03/01 12:10:25;;;;;;;2.42;1.50;;;23.50;25.90;;;;;;5110129;28;20889;-71
2022/03/01 12:12:55;;;;;;;1.95;1.50;;;23.60;26.10;;;;;;5106480;28;20388;-72
2022/03/01 12:15:35;;;;;;;2.60;1.60;;;23.60;25.80;;;;;;5109851;28;20384;-72
2022/03/01 12:18:15;;;;;;;1.90;1.40;;;23.60;26.10;;;;;;5108750;28;20514;-68
2022/03/01 12:20:44;;;;;;;2.05;1.40;;;23.60;26.20;;;;;;5108763;28;20868;-70
2022/03/01 12:23:10;;;;;;;2.10;1.50;;;23.50;26.30;;;;;;5107530;28;20438;-68
2022/03/01 12:25:39;;;;;;;1.92;1.50;;;23.50;26.30;;;;;;5109920;28;20388;-70
2022/03/01 12:28:08;;;;;;;1.83;1.35;;;23.50;26.20;;;;;;5108855;28;20404;-69
2022/03/01 12:30:42;;;;;;;2.55;1.50;;;23.50;26.30;;;;;;5108799;28;20537;-70
2022/03/01 12:33:13;;;;;;;2.40;1.40;;;23.50;26.30;;;;;;5109725;28;20416;-71
2022/03/01 12:35:39;;;;;;;2.50;1.60;;;23.50;26.30;;;;;;5109781;28;20384;-69
2022/03/01 12:38:09;;;;;;;1.77;1.27;;;23.50;26.40;;;;;;5108084;28;20385;-69
2022/03/01 12:40:35;;;;;;;2.35;1.48;;;23.60;26.40;;;;;;5108705;28;20391;-68
2022/03/01 12:43:10;;;;;;;2.00;1.40;;;23.60;26.30;;;;;;5108570;28;20761;-69
2022/03/01 12:45:39;;;;;;;1.90;1.40;;;23.60;26.80;;;;;;5109799;28;20403;-72
2022/03/01 12:48:07;;;;;;;1.90;1.50;;;23.60;26.30;;;;;;5109994;28;20881;-69